createdAt,value
2023-03-20T00:01:48.953Z,97
2023-03-20T00:03:03.151Z,99
2023-03-20T00:04:17.317Z,90
2023-03-20T00:06:45.668Z,94
2023-03-20T00:07:59.633Z,87
2023-03-20T00:09:13.850Z,87
2023-03-20T00:11:42.020Z,83
2023-03-20T00:12:56.189Z,87
2023-03-20T00:14:10.277Z,81
2023-03-20T00:16:38.555Z,77
2023-03-20T00:17:52.817Z,79
2023-03-20T00:19:06.831Z,79
2023-03-20T00:20:21.086Z,81
2023-03-20T00:22:49.226Z,66
2023-03-20T00:24:03.378Z,71
2023-03-20T00:25:17.545Z,73
2023-03-20T00:27:45.840Z,71
2023-03-20T00:28:59.929Z,72
2023-03-20T00:30:14.036Z,74
2023-03-20T00:32:42.320Z,76
2023-03-20T00:33:56.432Z,77
2023-03-20T00:35:10.541Z,77
2023-03-20T00:37:38.916Z,79
2023-03-20T00:38:53.045Z,79
2023-03-20T00:40:07.102Z,79
2023-03-20T00:41:21.258Z,74
2023-03-20T00:43:49.592Z,74
2023-03-20T00:45:03.717Z,79
2023-03-20T00:46:17.810Z,76
2023-03-20T00:48:46.156Z,80
2023-03-20T00:50:00.257Z,84
2023-03-20T00:51:14.321Z,79
2023-03-20T00:53:42.616Z,84
2023-03-20T00:54:56.704Z,77
2023-03-20T00:56:10.817Z,75
2023-03-20T00:58:39.129Z,80
2023-03-20T00:59:53.239Z,76
2023-03-20T01:01:07.496Z,74
2023-03-20T01:02:21.511Z,80
2023-03-20T01:04:49.752Z,70
2023-03-20T01:06:03.964Z,72
2023-03-20T01:07:18.031Z,66
2023-03-20T01:09:46.301Z,67
2023-03-20T01:11:00.477Z,64
2023-03-20T01:12:14.723Z,64
2023-03-20T01:14:42.829Z,60
2023-03-20T01:15:56.962Z,63
2023-03-20T01:17:13.532Z,62
2023-03-20T01:18:25.225Z,62
2023-03-20T01:19:39.367Z,66
2023-03-20T01:20:53.538Z,63
2023-03-20T01:22:07.659Z,65
2023-03-20T01:23:21.764Z,60
2023-03-20T01:25:50.084Z,62
2023-03-20T01:27:04.177Z,61
2023-03-20T01:28:18.361Z,66
2023-03-20T01:30:46.542Z,60
2023-03-20T01:32:00.732Z,60
2023-03-20T01:33:15.079Z,55
2023-03-20T01:35:43.082Z,61
2023-03-20T01:36:57.264Z,62
2023-03-20T01:38:11.322Z,57
2023-03-20T01:40:39.712Z,60
2023-03-20T01:41:53.855Z,60
2023-03-20T01:43:07.892Z,61
2023-03-20T01:44:22.143Z,60
2023-03-20T01:48:04.444Z,61
2023-03-20T01:49:18.542Z,59
2023-03-20T01:51:46.824Z,57
2023-03-20T01:53:00.943Z,60
2023-03-20T01:54:15.100Z,62
2023-03-20T01:56:43.365Z,61
2023-03-20T01:57:57.541Z,71
2023-03-20T01:59:11.626Z,76
2023-03-20T02:01:39.945Z,70
2023-03-20T02:02:54.093Z,73
2023-03-20T02:04:08.180Z,74
2023-03-20T02:05:22.369Z,77
2023-03-20T02:07:50.941Z,79
2023-03-20T02:09:04.766Z,84
2023-03-20T02:10:18.931Z,84
2023-03-20T02:12:47.090Z,84
2023-03-20T02:14:01.239Z,86
2023-03-20T02:15:15.384Z,85
2023-03-20T02:17:43.633Z,85
2023-03-20T02:18:57.786Z,86
2023-03-20T02:20:11.883Z,88
2023-03-20T02:22:40.200Z,90
2023-03-20T02:23:54.325Z,83
2023-03-20T02:25:08.457Z,90
2023-03-20T02:26:22.600Z,92
2023-03-20T02:28:51.030Z,94
2023-03-20T02:30:05.054Z,82
2023-03-20T02:31:19.183Z,85
2023-03-20T02:33:47.342Z,80
2023-03-20T02:35:01.477Z,80
2023-03-20T02:36:15.779Z,84
2023-03-20T02:38:43.978Z,80
2023-03-20T02:39:58.026Z,77
2023-03-20T02:41:12.203Z,80
2023-03-20T02:42:26.287Z,82
2023-03-20T02:43:40.395Z,77
2023-03-20T02:44:54.574Z,73
2023-03-20T02:46:08.726Z,86
2023-03-20T02:47:22.854Z,73
2023-03-20T02:49:51.276Z,71
2023-03-20T02:51:05.241Z,79
2023-03-20T02:52:19.388Z,78
2023-03-20T02:54:47.616Z,75
2023-03-20T02:56:01.778Z,70
2023-03-20T02:57:15.892Z,72
2023-03-20T02:59:44.161Z,75
2023-03-20T03:00:58.370Z,71
2023-03-20T03:02:12.444Z,80
2023-03-20T03:04:40.653Z,78
2023-03-20T03:05:54.832Z,77
2023-03-20T03:07:08.959Z,71
2023-03-20T03:08:23.098Z,71
2023-03-20T03:10:51.427Z,73
2023-03-20T03:12:05.492Z,71
2023-03-20T03:13:19.623Z,71
2023-03-20T03:17:02.011Z,68
2023-03-20T03:18:16.181Z,68
2023-03-20T03:20:44.407Z,60
2023-03-20T03:21:58.537Z,66
2023-03-20T03:23:12.741Z,65
2023-03-20T03:25:40.990Z,68
2023-03-20T03:26:55.153Z,60
2023-03-20T03:28:09.251Z,64
2023-03-20T03:29:23.419Z,66
2023-03-20T03:31:51.583Z,63
2023-03-20T03:33:05.802Z,65
2023-03-20T03:34:19.990Z,66
2023-03-20T03:36:48.145Z,64
2023-03-20T03:38:02.289Z,61
2023-03-20T03:39:16.428Z,61
2023-03-20T03:41:44.686Z,64
2023-03-20T03:42:58.809Z,64
2023-03-20T03:44:12.943Z,63
2023-03-20T03:46:44.080Z,64
2023-03-20T03:47:55.354Z,64
2023-03-20T03:49:09.509Z,65
2023-03-20T03:50:23.661Z,65
2023-03-20T03:52:51.881Z,61
2023-03-20T03:54:06.060Z,58
2023-03-20T03:55:20.191Z,66
2023-03-20T03:57:48.406Z,66
2023-03-20T03:59:02.535Z,63
2023-03-20T04:00:16.782Z,60
2023-03-20T04:02:44.930Z,64
2023-03-20T04:03:59.078Z,57
2023-03-20T04:05:13.239Z,61
2023-03-20T04:07:41.484Z,58
2023-03-20T04:08:55.609Z,49
2023-03-20T04:10:09.754Z,52
2023-03-20T04:12:38.013Z,43
2023-03-20T04:13:52.148Z,55
2023-03-20T04:15:06.314Z,48
2023-03-20T04:16:20.548Z,47
2023-03-20T04:18:48.718Z,45
2023-03-20T04:20:02.893Z,44
2023-03-20T04:21:17.009Z,42
2023-03-20T04:23:45.282Z,47
2023-03-20T04:24:59.374Z,44
2023-03-20T04:26:13.547Z,46
2023-03-20T04:28:41.733Z,42
2023-03-20T04:29:55.903Z,41
2023-03-20T04:31:10.148Z,42
2023-03-20T04:32:24.232Z,38
2023-03-20T04:34:52.518Z,44
2023-03-20T04:36:06.575Z,46
2023-03-20T04:37:20.754Z,40
2023-03-20T04:39:48.958Z,41
2023-03-20T04:41:03.078Z,42
2023-03-20T04:42:17.199Z,42
2023-03-20T04:44:45.646Z,42
2023-03-20T04:45:59.647Z,41
2023-03-20T04:47:13.728Z,42
2023-03-20T04:49:41.981Z,41
2023-03-20T04:50:56.159Z,47
2023-03-20T04:52:10.280Z,45
2023-03-20T04:54:38.566Z,48
2023-03-20T04:55:52.681Z,48
2023-03-20T04:57:06.799Z,49
2023-03-20T04:58:20.914Z,51
2023-03-20T05:00:49.244Z,52
2023-03-20T05:02:03.329Z,54
2023-03-20T05:03:17.489Z,58
2023-03-20T05:05:45.850Z,53
2023-03-20T05:06:59.995Z,52
2023-03-20T05:08:14.008Z,58
2023-03-20T05:10:42.740Z,53
2023-03-20T05:11:56.397Z,55
2023-03-20T05:13:10.517Z,51
2023-03-20T05:15:38.861Z,55
2023-03-20T05:16:52.950Z,56
2023-03-20T05:18:07.061Z,58
2023-03-20T05:19:21.185Z,52
2023-03-20T05:21:49.540Z,47
2023-03-20T05:23:06.211Z,45
2023-03-20T05:24:17.741Z,52
2023-03-20T05:26:46.271Z,47
2023-03-20T05:28:00.237Z,47
2023-03-20T05:29:14.358Z,50
2023-03-20T05:31:42.853Z,46
2023-03-20T05:32:56.721Z,47
2023-03-20T05:34:10.778Z,47
2023-03-20T05:36:39.076Z,51
2023-03-20T05:37:53.188Z,48
2023-03-20T05:39:07.342Z,45
2023-03-20T05:40:21.428Z,44
2023-03-20T05:42:49.994Z,44
2023-03-20T05:44:03.918Z,46
2023-03-20T05:45:18.049Z,39
2023-03-20T05:47:46.459Z,43
2023-03-20T05:49:00.362Z,46
2023-03-20T05:50:14.589Z,41
2023-03-20T05:52:42.838Z,40
2023-03-20T05:53:56.925Z,42
2023-03-20T05:55:11.040Z,41
2023-03-20T05:56:25.318Z,43
2023-03-20T05:57:39.428Z,44
2023-03-20T05:58:53.568Z,45
2023-03-20T06:00:07.596Z,43
2023-03-20T06:01:21.898Z,45
2023-03-20T06:03:50.051Z,45
2023-03-20T06:05:04.112Z,46
2023-03-20T06:06:18.339Z,45
2023-03-20T06:08:46.542Z,45
2023-03-20T06:10:00.632Z,45
2023-03-20T06:11:14.826Z,46
2023-03-20T06:13:43.216Z,47
2023-03-20T06:14:57.281Z,47
2023-03-20T06:16:11.348Z,45
2023-03-20T06:18:39.656Z,49
2023-03-20T06:19:53.803Z,47
2023-03-20T06:21:08.065Z,47
2023-03-20T06:22:22.010Z,51
2023-03-20T06:24:50.324Z,47
2023-03-20T06:26:04.504Z,44
2023-03-20T06:27:18.638Z,46
2023-03-20T06:29:46.773Z,49
2023-03-20T06:31:00.965Z,42
2023-03-20T06:32:15.072Z,43
2023-03-20T06:34:43.306Z,43
2023-03-20T06:35:57.499Z,43
2023-03-20T06:37:11.607Z,43
2023-03-20T06:39:39.912Z,46
2023-03-20T06:40:54.020Z,43
2023-03-20T06:42:08.189Z,39
2023-03-20T06:43:22.248Z,35
2023-03-20T06:45:50.505Z,41
2023-03-20T06:47:04.798Z,37
2023-03-20T06:48:18.854Z,37
2023-03-20T06:50:47.039Z,36
2023-03-20T06:52:01.289Z,37
2023-03-20T06:53:15.334Z,39
2023-03-20T06:55:43.649Z,38
2023-03-20T06:56:57.717Z,38
2023-03-20T06:58:11.870Z,39
2023-03-20T07:00:40.133Z,34
2023-03-20T07:01:54.360Z,37
2023-03-20T07:03:08.442Z,37
2023-03-20T07:04:22.599Z,40
2023-03-20T07:06:50.812Z,36
2023-03-20T07:08:04.969Z,38
2023-03-20T07:09:19.047Z,37
2023-03-20T07:11:47.309Z,34
2023-03-20T07:13:01.435Z,37
2023-03-20T07:14:15.647Z,35
2023-03-20T07:16:43.923Z,35
2023-03-20T07:17:58.090Z,36
2023-03-20T07:19:12.147Z,34
2023-03-20T07:20:26.261Z,33
2023-03-20T07:21:40.373Z,37
2023-03-20T07:22:54.551Z,36
2023-03-20T07:24:08.644Z,33
2023-03-20T07:25:41.545Z,30
2023-03-20T07:27:51.047Z,35
2023-03-20T07:29:05.180Z,36
2023-03-20T07:30:19.322Z,36
2023-03-20T07:32:47.655Z,37
2023-03-20T07:34:01.748Z,35
2023-03-20T07:35:15.914Z,36
2023-03-20T07:37:44.112Z,36
2023-03-20T07:38:58.320Z,35
2023-03-20T07:40:12.449Z,36
2023-03-20T07:42:40.632Z,37
2023-03-20T07:43:54.881Z,37
2023-03-20T07:45:08.925Z,35
2023-03-20T07:46:23.330Z,36
2023-03-20T07:48:51.305Z,39
2023-03-20T07:50:07.764Z,40
2023-03-20T07:51:19.614Z,36
2023-03-20T07:53:47.853Z,42
2023-03-20T07:55:02.014Z,39
2023-03-20T07:56:16.098Z,40
2023-03-20T07:58:44.383Z,37
2023-03-20T07:59:58.572Z,37
2023-03-20T08:01:12.698Z,32
2023-03-20T08:03:41.044Z,32
2023-03-20T08:04:55.103Z,32
2023-03-20T08:06:09.259Z,33
2023-03-20T08:07:23.422Z,30
2023-03-20T08:09:51.546Z,28
2023-03-20T08:11:05.727Z,29
2023-03-20T08:12:19.849Z,29
2023-03-20T08:14:48.119Z,27
2023-03-20T08:16:02.253Z,26
2023-03-20T08:17:18.727Z,26
2023-03-20T08:19:44.637Z,22
2023-03-20T08:20:58.806Z,25
2023-03-20T08:22:12.940Z,20
2023-03-20T08:24:41.192Z,25
2023-03-20T08:25:55.332Z,20
2023-03-20T08:27:09.598Z,23
2023-03-20T08:28:36.332Z,22
2023-03-20T08:30:51.905Z,19
2023-03-20T08:32:05.993Z,19
2023-03-20T08:33:20.172Z,19
2023-03-20T08:35:48.720Z,20
2023-03-20T08:37:02.519Z,17
2023-03-20T08:38:16.666Z,17
2023-03-20T08:40:44.905Z,16
2023-03-20T08:42:01.001Z,17
2023-03-20T08:43:13.295Z,21
2023-03-20T08:45:41.474Z,17
2023-03-20T08:46:55.586Z,18
2023-03-20T08:48:09.761Z,16
2023-03-20T08:49:23.851Z,14
2023-03-20T08:51:52.108Z,18
2023-03-20T08:53:06.253Z,14
2023-03-20T08:54:20.372Z,14
2023-03-20T08:56:49.166Z,15
2023-03-20T08:58:02.868Z,13
2023-03-20T08:59:16.924Z,13
2023-03-20T09:01:49.647Z,13
2023-03-20T09:02:59.390Z,15
2023-03-20T09:04:13.472Z,12
2023-03-20T09:06:41.702Z,13
2023-03-20T09:07:55.848Z,14
2023-03-20T09:09:10.001Z,16
2023-03-20T09:10:24.211Z,17
2023-03-20T09:12:52.397Z,15
2023-03-20T09:14:06.519Z,15
2023-03-20T09:15:20.657Z,13
2023-03-20T09:17:48.955Z,14
2023-03-20T09:19:03.091Z,16
2023-03-20T09:20:17.189Z,14
2023-03-20T09:22:45.424Z,15
2023-03-20T09:23:59.641Z,12
2023-03-20T09:25:13.778Z,13
2023-03-20T09:27:42.030Z,11
2023-03-20T09:28:56.148Z,10
2023-03-20T09:30:10.218Z,11
2023-03-20T09:32:38.535Z,7
2023-03-20T09:33:52.749Z,10
2023-03-20T09:35:06.792Z,10
2023-03-20T09:36:20.891Z,7
2023-03-20T09:38:49.191Z,10
2023-03-20T09:40:03.339Z,10
2023-03-20T09:41:17.445Z,11
2023-03-20T09:43:45.738Z,10
2023-03-20T09:44:59.886Z,10
2023-03-20T09:46:14.060Z,10
2023-03-20T09:48:42.299Z,11
2023-03-20T09:49:56.386Z,12
2023-03-20T09:51:10.555Z,10
2023-03-20T09:53:38.782Z,12
2023-03-20T09:54:54.746Z,9
2023-03-20T09:56:07.050Z,9
2023-03-20T09:57:21.165Z,8
2023-03-20T09:59:49.585Z,8
2023-03-20T10:01:03.577Z,11
2023-03-20T10:02:17.700Z,12
2023-03-20T10:04:46.120Z,10
2023-03-20T10:06:00.226Z,12
2023-03-20T10:07:14.250Z,12
2023-03-20T10:09:42.575Z,12
2023-03-20T10:10:56.649Z,11
2023-03-20T10:12:10.757Z,11
2023-03-20T10:13:25.002Z,11
2023-03-20T10:16:01.472Z,9
2023-03-20T10:17:15.476Z,8
2023-03-20T10:19:43.779Z,10
2023-03-20T10:20:57.966Z,10
2023-03-20T10:22:12.038Z,11
2023-03-20T10:24:40.263Z,8
2023-03-20T10:25:54.468Z,11
2023-03-20T10:27:08.764Z,7
2023-03-20T10:28:22.693Z,8
2023-03-20T10:30:50.959Z,9
2023-03-20T10:32:05.231Z,8
2023-03-20T10:33:19.271Z,12
2023-03-20T10:35:47.470Z,9
2023-03-20T10:37:01.626Z,11
2023-03-20T10:38:15.769Z,10
2023-03-20T10:40:44.098Z,8
2023-03-20T10:41:58.165Z,9
2023-03-20T10:43:12.348Z,7
2023-03-20T10:45:40.534Z,6
2023-03-20T10:46:54.818Z,9
2023-03-20T10:48:08.938Z,7
2023-03-20T10:49:23.024Z,8
2023-03-20T10:51:51.214Z,11
2023-03-20T10:53:05.347Z,9
2023-03-20T10:54:19.488Z,11
2023-03-20T10:56:47.731Z,8
2023-03-20T10:58:01.894Z,8
2023-03-20T10:59:16.010Z,8
2023-03-20T11:01:44.331Z,8
2023-03-20T11:02:58.407Z,7
2023-03-20T11:04:12.679Z,7
2023-03-20T11:06:40.822Z,10
2023-03-20T11:07:54.996Z,8
2023-03-20T11:09:09.184Z,8
2023-03-20T11:10:23.217Z,8
2023-03-20T11:12:51.488Z,9
2023-03-20T11:14:05.607Z,10
2023-03-20T11:15:19.762Z,7
2023-03-20T11:17:48.015Z,10
2023-03-20T11:19:04.782Z,9
2023-03-20T11:20:16.334Z,10
2023-03-20T11:22:44.559Z,8
2023-03-20T11:23:58.695Z,7
2023-03-20T11:25:12.833Z,9
2023-03-20T11:27:41.062Z,8
2023-03-20T11:28:57.877Z,7
2023-03-20T11:30:09.409Z,7
2023-03-20T11:31:23.692Z,8
2023-03-20T11:33:51.740Z,11
2023-03-20T11:35:05.888Z,8
2023-03-20T11:36:20.096Z,9
2023-03-20T11:38:48.275Z,8
2023-03-20T11:40:02.416Z,8
2023-03-20T11:41:16.549Z,7
2023-03-20T11:43:44.806Z,11
2023-03-20T11:44:58.951Z,9
2023-03-20T11:46:13.262Z,9
2023-03-20T11:48:41.337Z,9
2023-03-20T11:49:55.497Z,8
2023-03-20T11:51:09.615Z,8
2023-03-20T11:52:23.805Z,8
2023-03-20T11:54:52.036Z,9
2023-03-20T11:56:06.134Z,8
2023-03-20T11:57:20.305Z,9
2023-03-20T11:59:48.540Z,9
2023-03-20T12:01:02.739Z,6
2023-03-20T12:02:16.890Z,7
2023-03-20T12:04:45.067Z,9
2023-03-20T12:05:59.270Z,6
2023-03-20T12:07:13.377Z,7
2023-03-20T12:09:41.573Z,10
2023-03-20T12:10:55.743Z,8
2023-03-20T12:12:09.963Z,9
2023-03-20T12:13:24.043Z,9
2023-03-20T12:15:52.448Z,7
2023-03-20T12:17:06.420Z,8
2023-03-20T12:18:20.515Z,8
2023-03-20T12:20:48.812Z,6
2023-03-20T12:22:02.982Z,7
2023-03-20T12:23:17.069Z,9
2023-03-20T12:25:45.347Z,9
2023-03-20T12:26:59.515Z,9
2023-03-20T12:28:13.647Z,6
2023-03-20T12:30:41.874Z,8
2023-03-20T12:31:56.019Z,11
2023-03-20T12:33:10.240Z,11
2023-03-20T12:35:38.492Z,7
2023-03-20T12:36:52.614Z,9
2023-03-20T12:38:06.676Z,8
2023-03-20T12:39:20.806Z,7
2023-03-20T12:41:49.069Z,6
2023-03-20T12:43:03.219Z,11
2023-03-20T12:44:17.357Z,8
2023-03-20T12:46:45.700Z,6
2023-03-20T12:47:59.841Z,6
2023-03-20T12:49:13.880Z,6
2023-03-20T12:51:42.161Z,6
2023-03-20T12:52:56.277Z,6
2023-03-20T12:54:10.440Z,7
2023-03-20T12:56:38.710Z,5
2023-03-20T12:57:52.874Z,8
2023-03-20T12:59:07.160Z,9
2023-03-20T13:00:21.093Z,10
2023-03-20T13:02:49.445Z,5
2023-03-20T13:04:03.471Z,9
2023-03-20T13:05:17.675Z,6
2023-03-20T13:07:45.852Z,6
2023-03-20T13:09:00.125Z,6
2023-03-20T13:10:14.169Z,7
2023-03-20T13:12:42.528Z,6
2023-03-20T13:13:56.533Z,5
2023-03-20T13:15:10.660Z,5
2023-03-20T13:17:38.977Z,5
2023-03-20T13:18:53.094Z,7
2023-03-20T13:20:07.202Z,6
2023-03-20T13:21:21.308Z,5
2023-03-20T13:23:49.657Z,5
2023-03-20T13:25:03.739Z,6
2023-03-20T13:26:17.932Z,3
2023-03-20T13:27:32.012Z,5
2023-03-20T13:28:46.244Z,4
2023-03-20T13:30:00.321Z,8
2023-03-20T13:31:14.512Z,6
2023-03-20T13:33:42.752Z,4
2023-03-20T13:34:56.813Z,5
2023-03-20T13:36:10.984Z,4
2023-03-20T13:38:39.293Z,4
2023-03-20T13:39:53.452Z,5
2023-03-20T13:41:07.462Z,4
2023-03-20T13:42:21.573Z,3
2023-03-20T13:44:49.906Z,5
2023-03-20T13:46:04.069Z,6
2023-03-20T13:47:18.159Z,4
2023-03-20T13:49:46.510Z,4
2023-03-20T13:51:02.134Z,6
2023-03-20T13:52:14.646Z,6
2023-03-20T13:54:43.046Z,7
2023-03-20T13:55:57.078Z,4
2023-03-20T13:57:11.192Z,4
2023-03-20T13:59:39.531Z,3
2023-03-20T14:00:53.698Z,8
2023-03-20T14:02:07.849Z,4
2023-03-20T14:03:21.828Z,5
2023-03-20T14:05:50.236Z,6
2023-03-20T14:07:04.411Z,6
2023-03-20T14:08:18.510Z,7
2023-03-20T14:10:46.892Z,4
2023-03-20T14:12:00.780Z,4
2023-03-20T14:13:14.935Z,9
2023-03-20T14:15:43.240Z,7
2023-03-20T14:16:57.400Z,5
2023-03-20T14:18:11.420Z,9
2023-03-20T14:20:39.881Z,5
2023-03-20T14:21:53.963Z,8
2023-03-20T14:23:07.982Z,8
2023-03-20T14:24:22.109Z,8
2023-03-20T14:26:50.366Z,5
2023-03-20T14:28:04.619Z,6
2023-03-20T14:29:18.725Z,6
2023-03-20T14:31:46.953Z,7
2023-03-20T14:33:01.142Z,6
2023-03-20T14:34:15.165Z,7
2023-03-20T14:36:43.569Z,8
2023-03-20T14:37:57.565Z,6
2023-03-20T14:39:11.698Z,5
2023-03-20T14:41:40.033Z,5
2023-03-20T14:42:54.113Z,5
2023-03-20T14:44:08.244Z,7
2023-03-20T14:45:22.409Z,7
2023-03-20T14:47:50.717Z,10
2023-03-20T14:49:04.852Z,6
2023-03-20T14:50:18.970Z,6
2023-03-20T14:52:47.173Z,5
2023-03-20T14:54:01.292Z,6
2023-03-20T14:55:15.463Z,6
2023-03-20T14:57:55.650Z,5
2023-03-20T14:58:57.915Z,6
2023-03-20T15:00:11.973Z,7
2023-03-20T15:02:40.241Z,6
2023-03-20T15:03:54.372Z,5
2023-03-20T15:05:08.556Z,5
2023-03-20T15:06:22.651Z,8
2023-03-20T15:08:50.882Z,6
2023-03-20T15:10:05.143Z,4
2023-03-20T15:11:19.214Z,4
2023-03-20T15:13:47.436Z,7
2023-03-20T15:15:01.556Z,6
2023-03-20T15:16:15.727Z,5
2023-03-20T15:18:43.984Z,6
2023-03-20T15:19:58.103Z,10
2023-03-20T15:21:12.263Z,11
2023-03-20T15:23:40.546Z,6
2023-03-20T15:24:54.636Z,7
2023-03-20T15:26:08.844Z,6
2023-03-20T15:27:23.014Z,6
2023-03-20T15:29:51.150Z,6
2023-03-20T15:31:05.314Z,5
2023-03-20T15:32:19.563Z,6
2023-03-20T15:34:47.758Z,7
2023-03-20T15:36:02.071Z,9
2023-03-20T15:37:16.129Z,10
2023-03-20T15:39:44.268Z,7
2023-03-20T15:40:58.456Z,9
2023-03-20T15:42:12.583Z,6
2023-03-20T15:44:40.815Z,9
2023-03-20T15:46:02.994Z,7
2023-03-20T15:47:09.125Z,4
2023-03-20T15:48:23.250Z,7
2023-03-20T15:50:51.432Z,6
2023-03-20T15:52:05.598Z,6
2023-03-20T15:53:19.757Z,7
2023-03-20T15:55:47.970Z,8
2023-03-20T15:57:02.121Z,7
2023-03-20T15:58:16.258Z,7
2023-03-20T16:00:44.618Z,10
2023-03-20T16:01:58.714Z,13
2023-03-20T16:03:12.786Z,5
2023-03-20T16:05:41.033Z,6
2023-03-20T16:06:55.186Z,10
2023-03-20T16:08:09.334Z,6
2023-03-20T16:09:23.466Z,7
2023-03-20T16:11:51.734Z,10
2023-03-20T16:13:05.846Z,7
2023-03-20T16:14:20.061Z,7
2023-03-20T16:16:48.249Z,6
2023-03-20T16:18:02.401Z,4
2023-03-20T16:19:16.526Z,5
2023-03-20T16:21:44.846Z,9
2023-03-20T16:22:58.906Z,6
2023-03-20T16:24:13.131Z,8
2023-03-20T16:26:41.287Z,6
2023-03-20T16:27:55.448Z,7
2023-03-20T16:29:09.620Z,4
2023-03-20T16:30:23.828Z,5
2023-03-20T16:32:52.069Z,7
2023-03-20T16:34:06.120Z,6
2023-03-20T16:35:20.222Z,7
2023-03-20T16:37:48.554Z,5
2023-03-20T16:39:02.758Z,8
2023-03-20T16:40:16.786Z,7
2023-03-20T16:42:45.052Z,6
2023-03-20T16:43:59.432Z,6
2023-03-20T16:45:13.320Z,9
2023-03-20T16:47:41.547Z,5
2023-03-20T16:48:55.723Z,8
2023-03-20T16:50:09.834Z,7
2023-03-20T16:51:23.982Z,6
2023-03-20T16:53:52.410Z,6
2023-03-20T16:55:06.397Z,4
2023-03-20T16:56:20.469Z,5
2023-03-20T16:58:48.773Z,5
2023-03-20T17:00:02.909Z,9
2023-03-20T17:01:17.088Z,6
2023-03-20T17:03:45.331Z,8
2023-03-20T17:04:59.474Z,8
2023-03-20T17:06:13.618Z,11
2023-03-20T17:08:41.855Z,7
2023-03-20T17:09:56.186Z,6
2023-03-20T17:11:10.162Z,6
2023-03-20T17:12:24.286Z,9
2023-03-20T17:14:52.590Z,12
2023-03-20T17:16:06.665Z,10
2023-03-20T17:17:20.733Z,6
2023-03-20T17:19:49.294Z,6
2023-03-20T17:21:03.227Z,8
2023-03-20T17:22:17.375Z,6
2023-03-20T17:24:45.556Z,6
2023-03-20T17:25:59.839Z,6
2023-03-20T17:27:13.942Z,6
2023-03-20T17:29:42.107Z,9
2023-03-20T17:30:56.260Z,7
2023-03-20T17:32:10.448Z,7
2023-03-20T17:33:24.523Z,6
2023-03-20T17:35:52.911Z,5
2023-03-20T17:37:06.917Z,6
2023-03-20T17:38:21.009Z,7
2023-03-20T17:40:49.468Z,7
2023-03-20T17:42:03.434Z,6
2023-03-20T17:43:17.894Z,8
2023-03-20T17:45:45.897Z,8
2023-03-20T17:47:00.092Z,10
2023-03-20T17:48:14.182Z,9
2023-03-20T17:50:42.472Z,9
2023-03-20T17:51:56.508Z,10
2023-03-20T17:53:10.586Z,9
2023-03-20T17:55:38.915Z,7
2023-03-20T17:56:53.050Z,9
2023-03-20T17:58:07.204Z,9
2023-03-20T17:59:21.264Z,11
2023-03-20T18:01:49.739Z,10
2023-03-20T18:03:03.722Z,9
2023-03-20T18:04:17.837Z,10
2023-03-20T18:05:31.961Z,10
2023-03-20T18:06:47.852Z,6
2023-03-20T18:08:00.277Z,9
2023-03-20T18:09:14.406Z,10
2023-03-20T18:11:42.708Z,7
2023-03-20T18:12:56.739Z,6
2023-03-20T18:14:10.871Z,10
2023-03-20T18:16:39.249Z,8
2023-03-20T18:17:53.437Z,6
2023-03-20T18:19:07.631Z,10
2023-03-20T18:20:21.536Z,9
2023-03-20T18:22:49.839Z,10
2023-03-20T18:24:03.972Z,8
2023-03-20T18:25:18.111Z,10
2023-03-20T18:27:46.460Z,10
2023-03-20T18:29:00.482Z,9
2023-03-20T18:30:14.620Z,7
2023-03-20T18:32:42.966Z,7
2023-03-20T18:33:57.065Z,10
2023-03-20T18:35:11.191Z,13
2023-03-20T18:37:39.490Z,9
2023-03-20T18:38:53.646Z,7
2023-03-20T18:40:07.690Z,10
2023-03-20T18:41:21.863Z,9
2023-03-20T18:43:50.154Z,9
2023-03-20T18:45:04.317Z,7
2023-03-20T18:46:18.396Z,10
2023-03-20T18:48:46.873Z,6
2023-03-20T18:50:04.885Z,10
2023-03-20T18:51:14.936Z,10
2023-03-20T18:53:43.230Z,7
2023-03-20T18:54:57.321Z,11
2023-03-20T18:56:11.454Z,9
2023-03-20T18:58:39.679Z,11
2023-03-20T18:59:53.853Z,8
2023-03-20T19:01:08.000Z,7
2023-03-20T19:02:22.126Z,8
2023-03-20T19:04:50.364Z,9
2023-03-20T19:06:04.615Z,8
2023-03-20T19:07:18.732Z,8
2023-03-20T19:09:47.005Z,10
2023-03-20T19:11:01.255Z,7
2023-03-20T19:12:15.190Z,10
2023-03-20T19:14:43.568Z,6
2023-03-20T19:15:57.637Z,9
2023-03-20T19:17:11.784Z,9
2023-03-20T19:19:40.094Z,8
2023-03-20T19:20:54.149Z,7
2023-03-20T19:22:13.071Z,7
2023-03-20T19:23:22.502Z,6
2023-03-20T19:25:50.666Z,8
2023-03-20T19:27:04.844Z,8
2023-03-20T19:28:21.489Z,6
2023-03-20T19:30:47.323Z,8
2023-03-20T19:32:01.428Z,6
2023-03-20T19:33:15.472Z,6
2023-03-20T19:36:11.733Z,8
2023-03-20T19:36:57.862Z,8
2023-03-20T19:38:11.969Z,8
2023-03-20T19:40:43.036Z,11
2023-03-20T19:41:54.434Z,8
2023-03-20T19:43:08.564Z,10
2023-03-20T19:44:22.669Z,8
2023-03-20T19:46:50.946Z,5
2023-03-20T19:48:05.040Z,8
2023-03-20T19:49:19.945Z,9
2023-03-20T19:51:47.446Z,5
2023-03-20T19:53:01.546Z,7
2023-03-20T19:54:15.755Z,8
2023-03-20T19:56:44.067Z,12
2023-03-20T19:57:58.114Z,7
2023-03-20T19:59:14.914Z,7
2023-03-20T20:01:40.535Z,8
2023-03-20T20:02:54.941Z,7
2023-03-20T20:04:08.808Z,7
2023-03-20T20:05:23.357Z,8
2023-03-20T20:09:05.320Z,10
2023-03-20T20:10:19.464Z,6
2023-03-20T20:12:47.656Z,7
2023-03-20T20:14:08.167Z,8
2023-03-20T20:15:15.994Z,11
2023-03-20T20:17:44.304Z,8
2023-03-20T20:18:58.423Z,6
2023-03-20T20:20:12.500Z,6
2023-03-20T20:22:40.724Z,6
2023-03-20T20:23:55.028Z,11
2023-03-20T20:25:09.048Z,6
2023-03-20T20:26:23.169Z,7
2023-03-20T20:28:51.502Z,6
2023-03-20T20:30:05.565Z,10
2023-03-20T20:31:19.829Z,7
2023-03-20T20:34:02.233Z,8
2023-03-20T20:38:50.639Z,8
2023-03-20T20:39:58.645Z,5
2023-03-20T20:41:12.796Z,7
2023-03-20T20:44:14.245Z,8
2023-03-20T20:44:55.187Z,9
2023-03-20T20:46:09.388Z,8
2023-03-20T20:47:23.473Z,7
2023-03-20T20:49:51.727Z,7
2023-03-20T20:51:05.854Z,8
2023-03-20T20:52:20.027Z,11
2023-03-20T20:54:48.438Z,8
2023-03-20T20:56:02.662Z,6
2023-03-20T20:57:16.476Z,8
2023-03-20T20:59:44.801Z,6
2023-03-20T21:00:58.949Z,7
2023-03-20T21:02:13.257Z,8
2023-03-20T21:04:41.336Z,6
2023-03-20T21:05:55.411Z,6
2023-03-20T21:07:11.236Z,6
2023-03-20T21:08:23.708Z,6
2023-03-20T21:10:51.977Z,11
2023-03-20T21:12:06.129Z,6
2023-03-20T21:13:20.275Z,7
2023-03-20T21:15:48.555Z,10
2023-03-20T21:17:02.669Z,12
2023-03-20T21:18:16.793Z,11
2023-03-20T21:20:45.049Z,13
2023-03-20T21:21:59.215Z,12
2023-03-20T21:23:13.642Z,9
2023-03-20T21:25:44.624Z,9
2023-03-20T21:26:55.689Z,8
2023-03-20T21:28:10.004Z,8
2023-03-20T21:29:24.082Z,12
2023-03-20T21:31:52.299Z,12
2023-03-20T21:33:06.411Z,12
2023-03-20T21:34:20.491Z,10
2023-03-20T21:36:49.481Z,9
2023-03-20T21:39:17.087Z,10
2023-03-20T21:41:45.326Z,11
2023-03-20T21:42:59.511Z,9
2023-03-20T21:44:17.759Z,9
2023-03-20T21:48:33.464Z,10
2023-03-20T21:52:23.924Z,7
2023-03-20T21:53:57.075Z,5
2023-03-20T21:55:00.872Z,6
2023-03-20T21:56:17.030Z,6
2023-03-20T21:58:36.527Z,7
2023-03-20T21:59:43.055Z,6
2023-03-20T22:01:12.257Z,6
2023-03-20T22:02:45.769Z,9
2023-03-20T22:04:54.975Z,6
2023-03-20T22:05:53.131Z,9
2023-03-20T22:08:26.578Z,6
2023-03-20T22:13:38.727Z,9
2023-03-20T22:14:49.323Z,5
2023-03-20T22:15:46.270Z,8
2023-03-20T22:24:31.142Z,6
2023-03-20T22:25:39.095Z,9
2023-03-20T22:27:10.831Z,7
2023-03-20T22:29:28.639Z,6
2023-03-20T22:30:49.393Z,6
2023-03-20T22:31:48.073Z,9
2023-03-20T22:34:25.861Z,8
2023-03-20T22:35:47.096Z,9
2023-03-20T22:36:56.240Z,7
2023-03-20T22:38:02.592Z,8
2023-03-20T22:42:53.233Z,12
2023-03-20T22:45:03.789Z,10
2023-03-20T22:46:16.760Z,14
2023-03-20T22:47:14.479Z,9
2023-03-20T22:49:42.738Z,8
2023-03-20T22:50:56.763Z,8
2023-03-20T22:52:26.466Z,9
2023-03-20T22:54:39.175Z,8
2023-03-20T22:55:53.257Z,9
2023-03-20T22:57:07.552Z,9
2023-03-20T22:58:21.585Z,8
2023-03-20T23:00:49.856Z,11
2023-03-20T23:02:03.979Z,7
2023-03-20T23:03:33.514Z,12
2023-03-20T23:05:46.408Z,9
2023-03-20T23:07:00.502Z,10
2023-03-20T23:08:14.689Z,11
2023-03-20T23:10:42.931Z,8
2023-03-20T23:11:57.049Z,11
2023-03-20T23:13:11.236Z,13
2023-03-20T23:14:28.358Z,11
2023-03-20T23:15:39.467Z,9
2023-03-20T23:16:53.677Z,10
2023-03-20T23:18:07.727Z,7
2023-03-20T23:19:22.106Z,8
2023-03-20T23:21:50.212Z,8
2023-03-20T23:23:04.362Z,9
2023-03-20T23:24:18.463Z,9
2023-03-20T23:26:46.833Z,7
2023-03-20T23:28:00.728Z,7
2023-03-20T23:29:15.026Z,11
2023-03-20T23:31:43.225Z,12
2023-03-20T23:32:57.330Z,9
2023-03-20T23:34:11.440Z,9
2023-03-20T23:36:39.781Z,35
2023-03-20T23:37:53.889Z,14
2023-03-20T23:40:22.089Z,12
2023-03-20T23:42:50.401Z,6
2023-03-20T23:44:04.554Z,7